Este sitio web usa cookies, puedes ver la política de cookies, aquí -
Cookies policy +
Arlat Virtual


 INFORMACIÓN METAR y TAF
METAR FOR SARL
ADDS - METARS form results

(1432 UTC 20 February 2020)
Data provider http://aviationweather.gov/metar/data/
 
METAR text: SARL 201400Z 18010KT 9999 FEW020 27/18 Q1015
Conditions at: SARL (PASO DE LOS LIBR, AR) observed 1400 UTC 20 February 2020
Temperature: 27.0°C (81°F)
Dewpoint: 18.0°C (64°F) [RH = 58%]
Pressure (altimeter): 29.97 inches Hg (1015.0 mb)
Winds: from the S (180 degrees) at 12 MPH (10 knots; 5.1 m/s)
Visibility: 6 or more miles (10+ km)
Ceiling: at least 12,000 feet AGL
Clouds: few clouds at 2000 feet AGL
Weather: no significant weather observed at this time

 MAPA DE AEROPUERTO

 INFORMACIÓN DE PISTA
Pista 18 Longitud 7415 ft Ancho 148 ft
Elevación 230 ft Umbral desplazado 230 ft Rumbo de pista 171
Pista 36 Longitud 7415 ft Ancho 148 ft
Elevación 229 ft Umbral desplazado 1010 ft Rumbo de pista 351

 FRECUANCIAS DEL AEROPUERTO
Tipo TWR Nombre LIBRES TWR Frecuencia 120.3 MHZ

 RADIO AYUDAS DEL AEROPUERTO
Tipo NDB Nombre Paso De Los Libres Frecuencia 250 KHZ


© 2018   Charly Docampo  Arlat Virtual  Todos los Derechos Reservados  ajugar.com.ar
Arlat Virtual

  Powered by Virtual Airlines Manager [v2.6.2]